sensor_id;sensor_type;location;lat;lon;timestamp;P1;durP1;ratioP1;P2;durP2;ratioP2
59089;SDS011;44878;50.102;18.982;2023-04-06T00:00:56;42.57;;;32.47;;
59089;SDS011;44878;50.102;18.982;2023-04-06T00:03:22;45.20;;;33.07;;
59089;SDS011;44878;50.102;18.982;2023-04-06T00:05:48;42.80;;;33.70;;
59089;SDS011;44878;50.102;18.982;2023-04-06T00:08:14;40.67;;;31.77;;
59089;SDS011;44878;50.102;18.982;2023-04-06T00:10:40;43.37;;;32.83;;
59089;SDS011;44878;50.102;18.982;2023-04-06T00:13:06;40.40;;;31.80;;
59089;SDS011;44878;50.102;18.982;2023-04-06T00:15:33;43.77;;;32.80;;
59089;SDS011;44878;50.102;18.982;2023-04-06T00:17:59;40.13;;;31.80;;
59089;SDS011;44878;50.102;18.982;2023-04-06T00:20:24;41.57;;;33.03;;
59089;SDS011;44878;50.102;18.982;2023-04-06T00:22:50;41.60;;;31.97;;
59089;SDS011;44878;50.102;18.982;2023-04-06T00:25:16;43.13;;;32.73;;
59089;SDS011;44878;50.102;18.982;2023-04-06T00:27:42;43.70;;;32.77;;
59089;SDS011;44878;50.102;18.982;2023-04-06T00:30:08;43.20;;;34.40;;
59089;SDS011;44878;50.102;18.982;2023-04-06T00:32:34;44.53;;;33.30;;
59089;SDS011;44878;50.102;18.982;2023-04-06T00:35:02;47.20;;;34.00;;
59089;SDS011;44878;50.102;18.982;2023-04-06T00:37:28;45.27;;;34.07;;
59089;SDS011;44878;50.102;18.982;2023-04-06T00:39:53;44.53;;;32.77;;
59089;SDS011;44878;50.102;18.982;2023-04-06T00:42:19;44.10;;;34.33;;
59089;SDS011;44878;50.102;18.982;2023-04-06T00:44:54;43.40;;;33.90;;
59089;SDS011;44878;50.102;18.982;2023-04-06T00:47:20;45.63;;;36.00;;
59089;SDS011;44878;50.102;18.982;2023-04-06T00:49:47;48.20;;;35.87;;
59089;SDS011;44878;50.102;18.982;2023-04-06T00:52:13;45.53;;;35.33;;
59089;SDS011;44878;50.102;18.982;2023-04-06T00:54:38;47.10;;;36.60;;
59089;SDS011;44878;50.102;18.982;2023-04-06T00:57:04;44.90;;;35.03;;
59089;SDS011;44878;50.102;18.982;2023-04-06T00:59:30;44.50;;;35.33;;
59089;SDS011;44878;50.102;18.982;2023-04-06T01:01:57;42.80;;;33.67;;
59089;SDS011;44878;50.102;18.982;2023-04-06T01:04:22;45.83;;;34.60;;
59089;SDS011;44878;50.102;18.982;2023-04-06T01:06:49;46.20;;;33.60;;
59089;SDS011;44878;50.102;18.982;2023-04-06T01:09:15;46.80;;;36.97;;
59089;SDS011;44878;50.102;18.982;2023-04-06T01:11:41;47.70;;;36.80;;
59089;SDS011;44878;50.102;18.982;2023-04-06T01:14:07;44.73;;;35.23;;
59089;SDS011;44878;50.102;18.982;2023-04-06T01:16:33;47.07;;;35.83;;
59089;SDS011;44878;50.102;18.982;2023-04-06T01:18:59;43.53;;;35.43;;
59089;SDS011;44878;50.102;18.982;2023-04-06T01:21:25;45.90;;;35.40;;
59089;SDS011;44878;50.102;18.982;2023-04-06T01:23:51;44.13;;;35.63;;
59089;SDS011;44878;50.102;18.982;2023-04-06T01:26:17;45.23;;;35.60;;
59089;SDS011;44878;50.102;18.982;2023-04-06T01:28:42;45.17;;;34.40;;
59089;SDS011;44878;50.102;18.982;2023-04-06T01:31:09;44.40;;;34.78;;
59089;SDS011;44878;50.102;18.982;2023-04-06T01:33:35;43.97;;;35.13;;
59089;SDS011;44878;50.102;18.982;2023-04-06T01:36:05;44.50;;;35.73;;
59089;SDS011;44878;50.102;18.982;2023-04-06T01:38:31;45.17;;;36.03;;
59089;SDS011;44878;50.102;18.982;2023-04-06T01:40:57;44.87;;;36.03;;
59089;SDS011;44878;50.102;18.982;2023-04-06T01:43:23;41.47;;;33.87;;
59089;SDS011;44878;50.102;18.982;2023-04-06T01:45:49;43.50;;;35.57;;
59089;SDS011;44878;50.102;18.982;2023-04-06T01:48:14;39.43;;;34.87;;
59089;SDS011;44878;50.102;18.982;2023-04-06T01:50:41;43.20;;;34.87;;
59089;SDS011;44878;50.102;18.982;2023-04-06T01:53:06;42.63;;;34.23;;
59089;SDS011;44878;50.102;18.982;2023-04-06T01:55:32;42.60;;;33.77;;
59089;SDS011;44878;50.102;18.982;2023-04-06T01:57:58;43.27;;;34.33;;
59089;SDS011;44878;50.102;18.982;2023-04-06T02:00:24;43.17;;;34.50;;
59089;SDS011;44878;50.102;18.982;2023-04-06T02:02:50;39.27;;;32.77;;
59089;SDS011;44878;50.102;18.982;2023-04-06T02:05:16;43.60;;;34.13;;
59089;SDS011;44878;50.102;18.982;2023-04-06T02:07:41;41.73;;;34.33;;
59089;SDS011;44878;50.102;18.982;2023-04-06T02:10:11;40.00;;;33.13;;
59089;SDS011;44878;50.102;18.982;2023-04-06T02:12:39;39.40;;;32.60;;
59089;SDS011;44878;50.102;18.982;2023-04-06T02:15:05;39.13;;;31.38;;
59089;SDS011;44878;50.102;18.982;2023-04-06T02:17:30;41.47;;;31.87;;
59089;SDS011;44878;50.102;18.982;2023-04-06T02:19:56;38.30;;;32.13;;
59089;SDS011;44878;50.102;18.982;2023-04-06T02:22:22;40.53;;;30.50;;
59089;SDS011;44878;50.102;18.982;2023-04-06T02:24:48;37.13;;;30.97;;
59089;SDS011;44878;50.102;18.982;2023-04-06T02:27:14;35.93;;;29.57;;
59089;SDS011;44878;50.102;18.982;2023-04-06T02:29:40;37.60;;;30.10;;
59089;SDS011;44878;50.102;18.982;2023-04-06T02:32:06;41.93;;;33.13;;
59089;SDS011;44878;50.102;18.982;2023-04-06T02:34:32;36.63;;;30.63;;
59089;SDS011;44878;50.102;18.982;2023-04-06T02:36:58;40.03;;;30.43;;
59089;SDS011;44878;50.102;18.982;2023-04-06T02:39:23;40.17;;;32.77;;
59089;SDS011;44878;50.102;18.982;2023-04-06T02:41:49;40.97;;;32.10;;
59089;SDS011;44878;50.102;18.982;2023-04-06T02:44:15;42.60;;;32.50;;
59089;SDS011;44878;50.102;18.982;2023-04-06T02:46:41;40.80;;;32.93;;
59089;SDS011;44878;50.102;18.982;2023-04-06T02:49:07;43.70;;;34.50;;
59089;SDS011;44878;50.102;18.982;2023-04-06T02:51:33;41.17;;;34.07;;
59089;SDS011;44878;50.102;18.982;2023-04-06T02:53:59;44.33;;;34.53;;
59089;SDS011;44878;50.102;18.982;2023-04-06T02:56:24;43.50;;;34.13;;
59089;SDS011;44878;50.102;18.982;2023-04-06T02:58:52;43.22;;;33.97;;
59089;SDS011;44878;50.102;18.982;2023-04-06T03:01:17;38.63;;;34.50;;
59089;SDS011;44878;50.102;18.982;2023-04-06T03:03:43;44.63;;;35.53;;
59089;SDS011;44878;50.102;18.982;2023-04-06T03:06:09;41.30;;;34.87;;
59089;SDS011;44878;50.102;18.982;2023-04-06T03:08:35;41.43;;;34.67;;
59089;SDS011;44878;50.102;18.982;2023-04-06T03:11:00;45.13;;;35.73;;
59089;SDS011;44878;50.102;18.982;2023-04-06T03:13:26;43.60;;;35.10;;
59089;SDS011;44878;50.102;18.982;2023-04-06T03:15:52;41.60;;;33.83;;
59089;SDS011;44878;50.102;18.982;2023-04-06T03:18:20;39.10;;;32.13;;
59089;SDS011;44878;50.102;18.982;2023-04-06T03:20:46;41.30;;;32.90;;
59089;SDS011;44878;50.102;18.982;2023-04-06T03:23:13;40.13;;;34.70;;
59089;SDS011;44878;50.102;18.982;2023-04-06T03:25:39;43.50;;;33.17;;
59089;SDS011;44878;50.102;18.982;2023-04-06T03:28:11;40.10;;;33.47;;
59089;SDS011;44878;50.102;18.982;2023-04-06T03:30:36;34.47;;;30.77;;
59089;SDS011;44878;50.102;18.982;2023-04-06T03:33:02;34.57;;;29.67;;
59089;SDS011;44878;50.102;18.982;2023-04-06T03:35:28;38.37;;;31.70;;
59089;SDS011;44878;50.102;18.982;2023-04-06T03:37:54;35.40;;;30.20;;
59089;SDS011;44878;50.102;18.982;2023-04-06T03:40:19;36.10;;;30.50;;
59089;SDS011;44878;50.102;18.982;2023-04-06T03:42:46;36.87;;;28.67;;
59089;SDS011;44878;50.102;18.982;2023-04-06T03:45:11;37.80;;;28.90;;
59089;SDS011;44878;50.102;18.982;2023-04-06T03:50:05;36.67;;;30.27;;
59089;SDS011;44878;50.102;18.982;2023-04-06T03:52:31;38.67;;;31.50;;
59089;SDS011;44878;50.102;18.982;2023-04-06T03:54:57;35.93;;;29.63;;
59089;SDS011;44878;50.102;18.982;2023-04-06T03:57:23;36.77;;;32.77;;
59089;SDS011;44878;50.102;18.982;2023-04-06T03:59:49;38.83;;;33.17;;
59089;SDS011;44878;50.102;18.982;2023-04-06T04:02:15;37.17;;;30.80;;
59089;SDS011;44878;50.102;18.982;2023-04-06T04:04:40;36.53;;;31.90;;
59089;SDS011;44878;50.102;18.982;2023-04-06T04:07:06;39.23;;;33.50;;
59089;SDS011;44878;50.102;18.982;2023-04-06T04:09:32;39.23;;;34.30;;
59089;SDS011;44878;50.102;18.982;2023-04-06T04:11:58;40.47;;;35.10;;
59089;SDS011;44878;50.102;18.982;2023-04-06T04:14:24;39.93;;;34.90;;
59089;SDS011;44878;50.102;18.982;2023-04-06T04:16:51;39.72;;;35.45;;
59089;SDS011;44878;50.102;18.982;2023-04-06T04:19:16;38.33;;;34.20;;
59089;SDS011;44878;50.102;18.982;2023-04-06T04:21:43;42.37;;;34.80;;
59089;SDS011;44878;50.102;18.982;2023-04-06T04:24:10;40.47;;;33.78;;
59089;SDS011;44878;50.102;18.982;2023-04-06T04:26:36;43.40;;;35.17;;
59089;SDS011;44878;50.102;18.982;2023-04-06T04:29:02;39.50;;;33.27;;
59089;SDS011;44878;50.102;18.982;2023-04-06T04:31:28;70.63;;;62.13;;
59089;SDS011;44878;50.102;18.982;2023-04-06T04:33:54;40.33;;;35.93;;
59089;SDS011;44878;50.102;18.982;2023-04-06T04:36:20;44.77;;;35.73;;
59089;SDS011;44878;50.102;18.982;2023-04-06T04:38:46;39.63;;;33.87;;
59089;SDS011;44878;50.102;18.982;2023-04-06T04:41:12;38.33;;;34.17;;
59089;SDS011;44878;50.102;18.982;2023-04-06T04:43:41;40.30;;;34.47;;
59089;SDS011;44878;50.102;18.982;2023-04-06T04:46:06;39.07;;;32.77;;
59089;SDS011;44878;50.102;18.982;2023-04-06T04:48:32;43.30;;;35.47;;
59089;SDS011;44878;50.102;18.982;2023-04-06T04:50:58;41.57;;;35.33;;
59089;SDS011;44878;50.102;18.982;2023-04-06T04:53:24;42.67;;;35.27;;
59089;SDS011;44878;50.102;18.982;2023-04-06T04:55:50;42.13;;;36.00;;
59089;SDS011;44878;50.102;18.982;2023-04-06T04:58:16;41.37;;;35.77;;
59089;SDS011;44878;50.102;18.982;2023-04-06T05:00:42;45.00;;;37.33;;
59089;SDS011;44878;50.102;18.982;2023-04-06T05:03:11;40.47;;;34.40;;
59089;SDS011;44878;50.102;18.982;2023-04-06T05:05:39;43.67;;;36.20;;
59089;SDS011;44878;50.102;18.982;2023-04-06T05:08:05;41.57;;;34.00;;
59089;SDS011;44878;50.102;18.982;2023-04-06T05:10:31;42.63;;;34.97;;
59089;SDS011;44878;50.102;18.982;2023-04-06T05:12:57;44.83;;;35.37;;
59089;SDS011;44878;50.102;18.982;2023-04-06T05:15:23;40.77;;;35.50;;
59089;SDS011;44878;50.102;18.982;2023-04-06T05:17:48;97.70;;;87.27;;
59089;SDS011;44878;50.102;18.982;2023-04-06T05:20:15;42.67;;;36.10;;
59089;SDS011;44878;50.102;18.982;2023-04-06T05:22:40;38.90;;;34.70;;
59089;SDS011;44878;50.102;18.982;2023-04-06T05:25:07;42.77;;;34.20;;
59089;SDS011;44878;50.102;18.982;2023-04-06T05:27:32;39.70;;;33.70;;
59089;SDS011;44878;50.102;18.982;2023-04-06T05:29:58;40.23;;;35.40;;
59089;SDS011;44878;50.102;18.982;2023-04-06T05:32:24;39.90;;;34.27;;
59089;SDS011;44878;50.102;18.982;2023-04-06T05:34:51;38.60;;;32.13;;
59089;SDS011;44878;50.102;18.982;2023-04-06T05:37:16;37.70;;;32.17;;
59089;SDS011;44878;50.102;18.982;2023-04-06T05:39:42;39.00;;;31.30;;
59089;SDS011;44878;50.102;18.982;2023-04-06T05:42:08;33.57;;;29.30;;
59089;SDS011;44878;50.102;18.982;2023-04-06T05:44:34;37.73;;;29.53;;
59089;SDS011;44878;50.102;18.982;2023-04-06T05:47:02;34.58;;;29.27;;
59089;SDS011;44878;50.102;18.982;2023-04-06T05:49:31;34.13;;;29.90;;
59089;SDS011;44878;50.102;18.982;2023-04-06T05:51:56;35.00;;;28.03;;
59089;SDS011;44878;50.102;18.982;2023-04-06T05:54:22;32.23;;;27.37;;
59089;SDS011;44878;50.102;18.982;2023-04-06T05:56:51;32.17;;;27.27;;
59089;SDS011;44878;50.102;18.982;2023-04-06T05:59:17;30.63;;;26.60;;
59089;SDS011;44878;50.102;18.982;2023-04-06T06:01:43;28.20;;;25.13;;
59089;SDS011;44878;50.102;18.982;2023-04-06T06:04:09;29.10;;;25.00;;
59089;SDS011;44878;50.102;18.982;2023-04-06T06:06:35;26.43;;;23.27;;
59089;SDS011;44878;50.102;18.982;2023-04-06T06:09:02;28.38;;;23.20;;
59089;SDS011;44878;50.102;18.982;2023-04-06T06:11:28;27.47;;;23.10;;
59089;SDS011;44878;50.102;18.982;2023-04-06T06:13:55;30.53;;;23.73;;
59089;SDS011;44878;50.102;18.982;2023-04-06T06:16:21;34.60;;;26.93;;
59089;SDS011;44878;50.102;18.982;2023-04-06T06:18:47;31.70;;;26.00;;
59089;SDS011;44878;50.102;18.982;2023-04-06T06:21:12;55.60;;;45.40;;
59089;SDS011;44878;50.102;18.982;2023-04-06T06:23:39;34.00;;;27.27;;
59089;SDS011;44878;50.102;18.982;2023-04-06T06:26:05;34.67;;;27.37;;
59089;SDS011;44878;50.102;18.982;2023-04-06T06:28:31;32.73;;;28.77;;
59089;SDS011;44878;50.102;18.982;2023-04-06T06:30:56;37.33;;;32.03;;
59089;SDS011;44878;50.102;18.982;2023-04-06T06:33:24;38.85;;;27.83;;
59089;SDS011;44878;50.102;18.982;2023-04-06T06:35:51;29.58;;;24.52;;
59089;SDS011;44878;50.102;18.982;2023-04-06T06:38:17;27.97;;;24.27;;
59089;SDS011;44878;50.102;18.982;2023-04-06T06:40:44;25.43;;;22.20;;
59089;SDS011;44878;50.102;18.982;2023-04-06T06:43:10;26.73;;;23.20;;
59089;SDS011;44878;50.102;18.982;2023-04-06T06:45:36;25.83;;;21.73;;
59089;SDS011;44878;50.102;18.982;2023-04-06T06:48:02;29.17;;;24.63;;
59089;SDS011;44878;50.102;18.982;2023-04-06T06:50:28;27.63;;;22.77;;
59089;SDS011;44878;50.102;18.982;2023-04-06T06:52:54;28.67;;;21.23;;
59089;SDS011;44878;50.102;18.982;2023-04-06T06:55:20;24.50;;;21.23;;
59089;SDS011;44878;50.102;18.982;2023-04-06T06:57:46;24.47;;;20.10;;
59089;SDS011;44878;50.102;18.982;2023-04-06T07:00:11;23.67;;;19.13;;
59089;SDS011;44878;50.102;18.982;2023-04-06T07:02:38;21.20;;;18.52;;
59089;SDS011;44878;50.102;18.982;2023-04-06T07:05:04;21.73;;;19.30;;
59089;SDS011;44878;50.102;18.982;2023-04-06T07:07:34;24.27;;;19.27;;
59089;SDS011;44878;50.102;18.982;2023-04-06T07:10:00;20.70;;;18.43;;
59089;SDS011;44878;50.102;18.982;2023-04-06T07:12:26;24.07;;;18.83;;
59089;SDS011;44878;50.102;18.982;2023-04-06T07:14:52;18.67;;;16.37;;
59089;SDS011;44878;50.102;18.982;2023-04-06T07:17:18;20.40;;;16.43;;
59089;SDS011;44878;50.102;18.982;2023-04-06T07:19:44;17.70;;;15.53;;
59089;SDS011;44878;50.102;18.982;2023-04-06T07:22:11;17.08;;;13.63;;
59089;SDS011;44878;50.102;18.982;2023-04-06T07:24:37;18.33;;;15.20;;
59089;SDS011;44878;50.102;18.982;2023-04-06T07:27:03;17.60;;;14.83;;
59089;SDS011;44878;50.102;18.982;2023-04-06T07:29:28;18.17;;;15.43;;
59089;SDS011;44878;50.102;18.982;2023-04-06T07:31:54;19.63;;;16.03;;
59089;SDS011;44878;50.102;18.982;2023-04-06T07:34:20;16.80;;;13.90;;
59089;SDS011;44878;50.102;18.982;2023-04-06T07:36:46;14.47;;;12.97;;
59089;SDS011;44878;50.102;18.982;2023-04-06T07:39:12;15.30;;;11.45;;
59089;SDS011;44878;50.102;18.982;2023-04-06T07:41:38;12.02;;;10.25;;
59089;SDS011;44878;50.102;18.982;2023-04-06T07:44:04;12.15;;;10.10;;
59089;SDS011;44878;50.102;18.982;2023-04-06T07:46:30;13.07;;;10.50;;
59089;SDS011;44878;50.102;18.982;2023-04-06T07:48:56;16.98;;;10.95;;
59089;SDS011;44878;50.102;18.982;2023-04-06T07:51:23;12.88;;;11.48;;
59089;SDS011;44878;50.102;18.982;2023-04-06T07:53:51;13.93;;;11.35;;
59089;SDS011;44878;50.102;18.982;2023-04-06T07:56:17;12.40;;;10.70;;
59089;SDS011;44878;50.102;18.982;2023-04-06T07:58:43;13.50;;;11.68;;
59089;SDS011;44878;50.102;18.982;2023-04-06T08:01:09;15.10;;;11.45;;
59089;SDS011;44878;50.102;18.982;2023-04-06T08:03:35;14.80;;;12.57;;
59089;SDS011;44878;50.102;18.982;2023-04-06T08:06:04;16.33;;;12.35;;
59089;SDS011;44878;50.102;18.982;2023-04-06T08:08:30;12.95;;;11.30;;
59089;SDS011;44878;50.102;18.982;2023-04-06T08:10:57;19.13;;;12.00;;
59089;SDS011;44878;50.102;18.982;2023-04-06T08:13:22;15.25;;;11.13;;
59089;SDS011;44878;50.102;18.982;2023-04-06T08:15:48;15.80;;;12.63;;
59089;SDS011;44878;50.102;18.982;2023-04-06T08:18:14;14.65;;;12.25;;
59089;SDS011;44878;50.102;18.982;2023-04-06T08:20:40;14.07;;;12.07;;
59089;SDS011;44878;50.102;18.982;2023-04-06T08:23:06;16.15;;;13.40;;
59089;SDS011;44878;50.102;18.982;2023-04-06T08:25:35;14.02;;;11.85;;
59089;SDS011;44878;50.102;18.982;2023-04-06T08:28:01;14.68;;;12.40;;
59089;SDS011;44878;50.102;18.982;2023-04-06T08:30:28;13.65;;;12.25;;
59089;SDS011;44878;50.102;18.982;2023-04-06T08:32:54;13.30;;;11.30;;
59089;SDS011;44878;50.102;18.982;2023-04-06T08:35:20;15.25;;;11.77;;
59089;SDS011;44878;50.102;18.982;2023-04-06T08:37:45;16.45;;;11.88;;
59089;SDS011;44878;50.102;18.982;2023-04-06T08:40:12;16.95;;;11.70;;
59089;SDS011;44878;50.102;18.982;2023-04-06T08:42:44;14.45;;;12.35;;
59089;SDS011;44878;50.102;18.982;2023-04-06T08:45:10;14.20;;;12.68;;
59089;SDS011;44878;50.102;18.982;2023-04-06T08:47:36;15.68;;;12.30;;
59089;SDS011;44878;50.102;18.982;2023-04-06T08:50:06;13.87;;;12.30;;
59089;SDS011;44878;50.102;18.982;2023-04-06T08:52:33;18.07;;;16.17;;
59089;SDS011;44878;50.102;18.982;2023-04-06T08:55:00;16.50;;;14.87;;
59089;SDS011;44878;50.102;18.982;2023-04-06T08:57:26;15.00;;;13.03;;
59089;SDS011;44878;50.102;18.982;2023-04-06T08:59:52;15.10;;;13.67;;
59089;SDS011;44878;50.102;18.982;2023-04-06T09:02:18;17.17;;;13.87;;
59089;SDS011;44878;50.102;18.982;2023-04-06T09:04:48;15.33;;;13.67;;
59089;SDS011;44878;50.102;18.982;2023-04-06T09:07:15;15.73;;;14.23;;
59089;SDS011;44878;50.102;18.982;2023-04-06T09:09:41;17.02;;;14.30;;
59089;SDS011;44878;50.102;18.982;2023-04-06T09:12:25;15.50;;;13.73;;
59089;SDS011;44878;50.102;18.982;2023-04-06T09:14:52;16.13;;;14.43;;
59089;SDS011;44878;50.102;18.982;2023-04-06T09:17:21;15.17;;;13.63;;
59089;SDS011;44878;50.102;18.982;2023-04-06T09:19:47;15.37;;;13.73;;
59089;SDS011;44878;50.102;18.982;2023-04-06T09:22:13;16.10;;;13.63;;
59089;SDS011;44878;50.102;18.982;2023-04-06T09:25:00;15.27;;;13.70;;
59089;SDS011;44878;50.102;18.982;2023-04-06T09:27:32;15.83;;;14.07;;
59089;SDS011;44878;50.102;18.982;2023-04-06T09:32:31;15.90;;;14.20;;
59089;SDS011;44878;50.102;18.982;2023-04-06T09:35:09;16.80;;;14.43;;
59089;SDS011;44878;50.102;18.982;2023-04-06T09:37:35;15.80;;;14.10;;
59089;SDS011;44878;50.102;18.982;2023-04-06T09:40:05;16.70;;;14.90;;
59089;SDS011;44878;50.102;18.982;2023-04-06T09:42:31;18.87;;;14.97;;
59089;SDS011;44878;50.102;18.982;2023-04-06T09:44:57;16.63;;;14.87;;
59089;SDS011;44878;50.102;18.982;2023-04-06T09:47:23;18.57;;;16.67;;
59089;SDS011;44878;50.102;18.982;2023-04-06T09:49:50;17.53;;;15.63;;
59089;SDS011;44878;50.102;18.982;2023-04-06T09:52:16;17.90;;;15.67;;
59089;SDS011;44878;50.102;18.982;2023-04-06T09:59:52;21.00;;;17.10;;
59089;SDS011;44878;50.102;18.982;2023-04-06T10:04:56;20.03;;;16.70;;
59089;SDS011;44878;50.102;18.982;2023-04-06T10:07:24;21.47;;;17.77;;
59089;SDS011;44878;50.102;18.982;2023-04-06T10:09:51;19.52;;;16.10;;
59089;SDS011;44878;50.102;18.982;2023-04-06T10:12:21;19.37;;;17.30;;
59089;SDS011;44878;50.102;18.982;2023-04-06T10:14:47;18.93;;;17.03;;
59089;SDS011;44878;50.102;18.982;2023-04-06T10:17:14;21.13;;;18.07;;
59089;SDS011;44878;50.102;18.982;2023-04-06T10:19:52;25.93;;;18.37;;
59089;SDS011;44878;50.102;18.982;2023-04-06T10:22:29;19.90;;;17.70;;
59089;SDS011;44878;50.102;18.982;2023-04-06T10:24:58;19.93;;;17.73;;
59089;SDS011;44878;50.102;18.982;2023-04-06T10:27:27;22.13;;;19.83;;
59089;SDS011;44878;50.102;18.982;2023-04-06T10:29:53;22.50;;;20.10;;
59089;SDS011;44878;50.102;18.982;2023-04-06T10:32:19;19.40;;;17.40;;
59089;SDS011;44878;50.102;18.982;2023-04-06T10:34:45;20.87;;;17.03;;
59089;SDS011;44878;50.102;18.982;2023-04-06T10:37:12;21.30;;;17.97;;
59089;SDS011;44878;50.102;18.982;2023-04-06T10:39:51;21.17;;;17.05;;
59089;SDS011;44878;50.102;18.982;2023-04-06T10:42:23;18.20;;;16.40;;
59089;SDS011;44878;50.102;18.982;2023-04-06T10:44:49;19.00;;;16.63;;
59089;SDS011;44878;50.102;18.982;2023-04-06T10:47:16;21.83;;;17.33;;
59089;SDS011;44878;50.102;18.982;2023-04-06T10:49:43;19.47;;;17.33;;
59089;SDS011;44878;50.102;18.982;2023-04-06T10:52:09;19.70;;;17.37;;
59089;SDS011;44878;50.102;18.982;2023-04-06T10:54:35;20.50;;;16.90;;
59089;SDS011;44878;50.102;18.982;2023-04-06T10:57:04;20.10;;;16.97;;
59089;SDS011;44878;50.102;18.982;2023-04-06T10:59:30;18.70;;;16.87;;
59089;SDS011;44878;50.102;18.982;2023-04-06T11:01:56;17.40;;;15.57;;
59089;SDS011;44878;50.102;18.982;2023-04-06T11:04:22;18.97;;;16.20;;
59089;SDS011;44878;50.102;18.982;2023-04-06T11:06:49;18.47;;;16.47;;
59089;SDS011;44878;50.102;18.982;2023-04-06T11:09:25;20.53;;;17.40;;
59089;SDS011;44878;50.102;18.982;2023-04-06T11:11:51;21.33;;;16.83;;
59089;SDS011;44878;50.102;18.982;2023-04-06T11:14:18;18.10;;;16.20;;
59089;SDS011;44878;50.102;18.982;2023-04-06T11:16:45;19.70;;;16.23;;
59089;SDS011;44878;50.102;18.982;2023-04-06T11:21:39;18.37;;;16.33;;
59089;SDS011;44878;50.102;18.982;2023-04-06T11:24:07;19.50;;;17.43;;
59089;SDS011;44878;50.102;18.982;2023-04-06T11:26:41;19.63;;;16.47;;
59089;SDS011;44878;50.102;18.982;2023-04-06T11:29:07;17.70;;;15.97;;
59089;SDS011;44878;50.102;18.982;2023-04-06T11:31:44;17.73;;;15.93;;
59089;SDS011;44878;50.102;18.982;2023-04-06T11:34:11;19.00;;;16.42;;
59089;SDS011;44878;50.102;18.982;2023-04-06T11:36:39;19.97;;;17.90;;
59089;SDS011;44878;50.102;18.982;2023-04-06T11:39:05;18.43;;;16.30;;
59089;SDS011;44878;50.102;18.982;2023-04-06T11:41:32;17.60;;;15.80;;
59089;SDS011;44878;50.102;18.982;2023-04-06T11:44:00;18.55;;;16.65;;
59089;SDS011;44878;50.102;18.982;2023-04-06T11:46:26;16.90;;;15.10;;
59089;SDS011;44878;50.102;18.982;2023-04-06T11:48:52;17.43;;;15.67;;
59089;SDS011;44878;50.102;18.982;2023-04-06T11:51:24;16.97;;;15.30;;
59089;SDS011;44878;50.102;18.982;2023-04-06T11:53:50;17.83;;;15.20;;
59089;SDS011;44878;50.102;18.982;2023-04-06T11:56:34;18.90;;;15.53;;
59089;SDS011;44878;50.102;18.982;2023-04-06T11:59:00;18.70;;;16.17;;
59089;SDS011;44878;50.102;18.982;2023-04-06T12:01:26;17.20;;;15.37;;
59089;SDS011;44878;50.102;18.982;2023-04-06T12:03:52;17.27;;;15.47;;
59089;SDS011;44878;50.102;18.982;2023-04-06T12:06:19;16.63;;;14.87;;
59089;SDS011;44878;50.102;18.982;2023-04-06T12:08:45;18.65;;;14.85;;
59089;SDS011;44878;50.102;18.982;2023-04-06T12:11:11;16.23;;;14.63;;
59089;SDS011;44878;50.102;18.982;2023-04-06T12:13:37;15.90;;;13.63;;
59089;SDS011;44878;50.102;18.982;2023-04-06T12:16:03;25.53;;;23.03;;
59089;SDS011;44878;50.102;18.982;2023-04-06T12:18:30;16.53;;;14.10;;
59089;SDS011;44878;50.102;18.982;2023-04-06T12:20:55;16.67;;;13.43;;
59089;SDS011;44878;50.102;18.982;2023-04-06T12:23:21;15.17;;;13.40;;
59089;SDS011;44878;50.102;18.982;2023-04-06T12:25:47;14.47;;;12.97;;
59089;SDS011;44878;50.102;18.982;2023-04-06T12:28:13;15.90;;;13.40;;
59089;SDS011;44878;50.102;18.982;2023-04-06T12:30:39;17.83;;;14.00;;
59089;SDS011;44878;50.102;18.982;2023-04-06T12:33:06;14.85;;;13.30;;
59089;SDS011;44878;50.102;18.982;2023-04-06T12:35:36;15.73;;;13.77;;
59089;SDS011;44878;50.102;18.982;2023-04-06T12:38:02;16.43;;;14.77;;
59089;SDS011;44878;50.102;18.982;2023-04-06T12:40:35;16.73;;;13.10;;
59089;SDS011;44878;50.102;18.982;2023-04-06T12:43:01;16.50;;;12.60;;
59089;SDS011;44878;50.102;18.982;2023-04-06T12:45:27;14.77;;;12.10;;
59089;SDS011;44878;50.102;18.982;2023-04-06T12:47:53;14.80;;;12.17;;
59089;SDS011;44878;50.102;18.982;2023-04-06T12:50:19;13.17;;;11.07;;
59089;SDS011;44878;50.102;18.982;2023-04-06T12:52:45;13.00;;;11.50;;
59089;SDS011;44878;50.102;18.982;2023-04-06T12:55:12;12.68;;;11.38;;
59089;SDS011;44878;50.102;18.982;2023-04-06T12:57:41;15.93;;;12.90;;
59089;SDS011;44878;50.102;18.982;2023-04-06T13:00:08;14.47;;;12.37;;
59089;SDS011;44878;50.102;18.982;2023-04-06T13:02:34;14.67;;;12.13;;
59089;SDS011;44878;50.102;18.982;2023-04-06T13:05:00;16.70;;;13.63;;
59089;SDS011;44878;50.102;18.982;2023-04-06T13:07:26;15.17;;;13.57;;
59089;SDS011;44878;50.102;18.982;2023-04-06T13:09:52;15.87;;;14.27;;
59089;SDS011;44878;50.102;18.982;2023-04-06T13:12:18;14.90;;;13.27;;
59089;SDS011;44878;50.102;18.982;2023-04-06T13:14:43;16.37;;;13.77;;
59089;SDS011;44878;50.102;18.982;2023-04-06T13:17:10;16.13;;;14.40;;
59089;SDS011;44878;50.102;18.982;2023-04-06T13:19:36;16.23;;;14.33;;
59089;SDS011;44878;50.102;18.982;2023-04-06T13:22:02;17.20;;;14.60;;
59089;SDS011;44878;50.102;18.982;2023-04-06T13:24:27;17.63;;;15.50;;
59089;SDS011;44878;50.102;18.982;2023-04-06T13:26:53;15.37;;;13.70;;
59089;SDS011;44878;50.102;18.982;2023-04-06T13:29:19;15.50;;;13.80;;
59089;SDS011;44878;50.102;18.982;2023-04-06T13:31:46;16.95;;;14.50;;
59089;SDS011;44878;50.102;18.982;2023-04-06T13:34:12;15.60;;;14.00;;
59089;SDS011;44878;50.102;18.982;2023-04-06T13:36:38;17.53;;;15.20;;
59089;SDS011;44878;50.102;18.982;2023-04-06T13:39:06;18.17;;;16.00;;
59089;SDS011;44878;50.102;18.982;2023-04-06T13:41:32;17.33;;;15.53;;
59089;SDS011;44878;50.102;18.982;2023-04-06T13:43:58;21.13;;;18.87;;
59089;SDS011;44878;50.102;18.982;2023-04-06T13:46:24;20.53;;;18.17;;
59089;SDS011;44878;50.102;18.982;2023-04-06T13:48:50;18.37;;;16.60;;
59089;SDS011;44878;50.102;18.982;2023-04-06T13:51:16;17.90;;;15.83;;
59089;SDS011;44878;50.102;18.982;2023-04-06T13:53:42;17.97;;;16.17;;
59089;SDS011;44878;50.102;18.982;2023-04-06T13:56:08;17.07;;;15.27;;
59089;SDS011;44878;50.102;18.982;2023-04-06T13:58:34;17.33;;;15.53;;
59089;SDS011;44878;50.102;18.982;2023-04-06T14:01:05;18.65;;;16.70;;
59089;SDS011;44878;50.102;18.982;2023-04-06T14:03:31;19.30;;;17.40;;
59089;SDS011;44878;50.102;18.982;2023-04-06T14:05:57;19.90;;;17.90;;
59089;SDS011;44878;50.102;18.982;2023-04-06T14:08:23;19.43;;;17.53;;
59089;SDS011;44878;50.102;18.982;2023-04-06T14:10:50;20.87;;;18.93;;
59089;SDS011;44878;50.102;18.982;2023-04-06T14:13:15;21.77;;;19.47;;
59089;SDS011;44878;50.102;18.982;2023-04-06T14:15:42;20.60;;;18.60;;
59089;SDS011;44878;50.102;18.982;2023-04-06T14:18:09;24.00;;;21.50;;
59089;SDS011;44878;50.102;18.982;2023-04-06T14:20:36;24.00;;;21.60;;